sensor_id;sensor_type;location;lat;lon;timestamp;temperature;humidity
15095;DHT22;7648;52.264;9.632;2024-02-21T00:01:45;8.80;99.90
15095;DHT22;7648;52.264;9.632;2024-02-21T00:05:47;8.80;99.90
15095;DHT22;7648;52.264;9.632;2024-02-21T00:09:48;8.80;99.90
15095;DHT22;7648;52.264;9.632;2024-02-21T00:13:50;8.80;99.90
15095;DHT22;7648;52.264;9.632;2024-02-21T00:17:54;8.80;99.90
15095;DHT22;7648;52.264;9.632;2024-02-21T00:21:56;8.80;99.90
15095;DHT22;7648;52.264;9.632;2024-02-21T00:25:58;8.80;99.90
15095;DHT22;7648;52.264;9.632;2024-02-21T00:30:00;8.80;99.90
15095;DHT22;7648;52.264;9.632;2024-02-21T00:34:03;8.80;99.90
15095;DHT22;7648;52.264;9.632;2024-02-21T00:38:06;8.80;99.90
15095;DHT22;7648;52.264;9.632;2024-02-21T00:42:08;8.80;99.90
15095;DHT22;7648;52.264;9.632;2024-02-21T00:46:10;8.80;99.90
15095;DHT22;7648;52.264;9.632;2024-02-21T00:50:13;8.80;99.90
15095;DHT22;7648;52.264;9.632;2024-02-21T00:54:15;8.80;99.90
15095;DHT22;7648;52.264;9.632;2024-02-21T00:58:17;8.80;99.90
15095;DHT22;7648;52.264;9.632;2024-02-21T01:02:19;8.80;99.90
15095;DHT22;7648;52.264;9.632;2024-02-21T01:06:22;8.90;99.90
15095;DHT22;7648;52.264;9.632;2024-02-21T01:10:25;8.90;99.90
15095;DHT22;7648;52.264;9.632;2024-02-21T01:14:27;8.90;99.90
15095;DHT22;7648;52.264;9.632;2024-02-21T01:18:28;8.90;99.90
15095;DHT22;7648;52.264;9.632;2024-02-21T01:22:32;8.90;99.90
15095;DHT22;7648;52.264;9.632;2024-02-21T01:26:34;8.90;99.90
15095;DHT22;7648;52.264;9.632;2024-02-21T01:30:36;8.90;99.90
15095;DHT22;7648;52.264;9.632;2024-02-21T01:34:38;9.00;99.90
15095;DHT22;7648;52.264;9.632;2024-02-21T01:38:41;9.00;99.90
15095;DHT22;7648;52.264;9.632;2024-02-21T01:42:43;9.00;99.90
15095;DHT22;7648;52.264;9.632;2024-02-21T01:46:45;9.00;99.90
15095;DHT22;7648;52.264;9.632;2024-02-21T01:50:47;9.00;99.90
15095;DHT22;7648;52.264;9.632;2024-02-21T01:54:51;9.00;99.90
15095;DHT22;7648;52.264;9.632;2024-02-21T01:58:53;9.00;99.90
15095;DHT22;7648;52.264;9.632;2024-02-21T02:02:57;9.00;99.90
15095;DHT22;7648;52.264;9.632;2024-02-21T02:07:00;9.00;99.90
15095;DHT22;7648;52.264;9.632;2024-02-21T02:11:04;9.00;99.90
15095;DHT22;7648;52.264;9.632;2024-02-21T02:15:07;9.00;99.90
15095;DHT22;7648;52.264;9.632;2024-02-21T02:19:09;9.00;99.90
15095;DHT22;7648;52.264;9.632;2024-02-21T02:23:23;9.00;99.90
15095;DHT22;7648;52.264;9.632;2024-02-21T02:27:25;9.00;99.90
15095;DHT22;7648;52.264;9.632;2024-02-21T02:31:27;9.10;99.90
15095;DHT22;7648;52.264;9.632;2024-02-21T02:35:29;9.00;99.90
15095;DHT22;7648;52.264;9.632;2024-02-21T02:39:32;9.00;99.90
15095;DHT22;7648;52.264;9.632;2024-02-21T02:43:34;9.00;99.90
15095;DHT22;7648;52.264;9.632;2024-02-21T02:47:38;9.10;99.90
15095;DHT22;7648;52.264;9.632;2024-02-21T02:51:41;9.10;99.90
15095;DHT22;7648;52.264;9.632;2024-02-21T02:55:45;9.10;99.90
15095;DHT22;7648;52.264;9.632;2024-02-21T02:59:47;9.10;99.90
15095;DHT22;7648;52.264;9.632;2024-02-21T03:03:50;9.00;99.90
15095;DHT22;7648;52.264;9.632;2024-02-21T03:07:51;9.00;99.90
15095;DHT22;7648;52.264;9.632;2024-02-21T03:11:55;9.00;99.90
15095;DHT22;7648;52.264;9.632;2024-02-21T03:16:03;9.10;99.90
15095;DHT22;7648;52.264;9.632;2024-02-21T03:20:07;9.10;99.90
15095;DHT22;7648;52.264;9.632;2024-02-21T03:24:10;9.10;99.90
15095;DHT22;7648;52.264;9.632;2024-02-21T03:28:14;9.00;99.90
15095;DHT22;7648;52.264;9.632;2024-02-21T03:32:16;8.90;99.90
15095;DHT22;7648;52.264;9.632;2024-02-21T03:36:18;8.90;99.90
15095;DHT22;7648;52.264;9.632;2024-02-21T03:40:20;8.90;99.90
15095;DHT22;7648;52.264;9.632;2024-02-21T03:44:24;8.90;99.90
15095;DHT22;7648;52.264;9.632;2024-02-21T03:48:26;8.80;99.90
15095;DHT22;7648;52.264;9.632;2024-02-21T03:52:28;8.70;99.90
15095;DHT22;7648;52.264;9.632;2024-02-21T03:56:30;8.70;99.90
15095;DHT22;7648;52.264;9.632;2024-02-21T04:00:33;8.60;99.90
15095;DHT22;7648;52.264;9.632;2024-02-21T04:04:35;8.60;99.90
15095;DHT22;7648;52.264;9.632;2024-02-21T04:08:39;8.50;99.90
15095;DHT22;7648;52.264;9.632;2024-02-21T04:12:41;8.50;99.90
15095;DHT22;7648;52.264;9.632;2024-02-21T04:16:44;8.50;99.90
15095;DHT22;7648;52.264;9.632;2024-02-21T04:20:47;8.50;99.90
15095;DHT22;7648;52.264;9.632;2024-02-21T04:24:49;8.50;99.90
15095;DHT22;7648;52.264;9.632;2024-02-21T04:28:50;8.60;99.90
15095;DHT22;7648;52.264;9.632;2024-02-21T04:32:54;8.70;99.90
15095;DHT22;7648;52.264;9.632;2024-02-21T04:36:56;8.80;99.90
15095;DHT22;7648;52.264;9.632;2024-02-21T04:40:58;8.80;99.90
15095;DHT22;7648;52.264;9.632;2024-02-21T04:45:00;8.90;99.90
15095;DHT22;7648;52.264;9.632;2024-02-21T04:49:03;8.90;99.90
15095;DHT22;7648;52.264;9.632;2024-02-21T04:53:05;9.00;99.90
15095;DHT22;7648;52.264;9.632;2024-02-21T04:57:07;9.00;99.90
15095;DHT22;7648;52.264;9.632;2024-02-21T05:01:10;8.90;99.90
15095;DHT22;7648;52.264;9.632;2024-02-21T05:05:14;9.00;99.90
15095;DHT22;7648;52.264;9.632;2024-02-21T05:09:17;8.90;99.90
15095;DHT22;7648;52.264;9.632;2024-02-21T05:13:19;8.90;99.90
15095;DHT22;7648;52.264;9.632;2024-02-21T05:17:21;8.90;99.90
15095;DHT22;7648;52.264;9.632;2024-02-21T05:21:24;8.90;99.90
15095;DHT22;7648;52.264;9.632;2024-02-21T05:25:27;8.90;99.90
15095;DHT22;7648;52.264;9.632;2024-02-21T05:29:29;8.90;99.90
15095;DHT22;7648;52.264;9.632;2024-02-21T05:33:31;9.00;99.90
15095;DHT22;7648;52.264;9.632;2024-02-21T05:37:34;8.90;99.90
15095;DHT22;7648;52.264;9.632;2024-02-21T05:41:36;8.90;99.90
15095;DHT22;7648;52.264;9.632;2024-02-21T05:45:38;8.90;99.90
15095;DHT22;7648;52.264;9.632;2024-02-21T05:49:40;8.90;99.90
15095;DHT22;7648;52.264;9.632;2024-02-21T05:53:43;8.80;99.90
15095;DHT22;7648;52.264;9.632;2024-02-21T05:57:45;8.80;99.90
15095;DHT22;7648;52.264;9.632;2024-02-21T06:01:55;8.80;99.90
15095;DHT22;7648;52.264;9.632;2024-02-21T06:05:58;8.80;99.90
15095;DHT22;7648;52.264;9.632;2024-02-21T06:10:02;8.80;99.90
15095;DHT22;7648;52.264;9.632;2024-02-21T06:14:04;8.80;99.90
15095;DHT22;7648;52.264;9.632;2024-02-21T06:18:06;8.80;99.90
15095;DHT22;7648;52.264;9.632;2024-02-21T06:22:08;8.80;99.90
15095;DHT22;7648;52.264;9.632;2024-02-21T06:26:11;8.70;99.90
15095;DHT22;7648;52.264;9.632;2024-02-21T06:30:14;8.70;99.90
15095;DHT22;7648;52.264;9.632;2024-02-21T06:34:16;8.70;99.90
15095;DHT22;7648;52.264;9.632;2024-02-21T06:38:17;8.60;99.90
15095;DHT22;7648;52.264;9.632;2024-02-21T06:42:21;8.60;99.90
15095;DHT22;7648;52.264;9.632;2024-02-21T06:46:24;8.60;99.90
15095;DHT22;7648;52.264;9.632;2024-02-21T06:50:26;8.60;99.90
15095;DHT22;7648;52.264;9.632;2024-02-21T06:54:28;8.70;99.90
15095;DHT22;7648;52.264;9.632;2024-02-21T06:58:31;8.70;99.90
15095;DHT22;7648;52.264;9.632;2024-02-21T07:02:33;8.70;99.90
15095;DHT22;7648;52.264;9.632;2024-02-21T07:06:35;8.70;99.90
15095;DHT22;7648;52.264;9.632;2024-02-21T07:10:37;8.70;99.90
15095;DHT22;7648;52.264;9.632;2024-02-21T07:14:40;8.70;99.90
15095;DHT22;7648;52.264;9.632;2024-02-21T07:18:42;8.80;99.90
15095;DHT22;7648;52.264;9.632;2024-02-21T07:22:44;8.80;99.90
15095;DHT22;7648;52.264;9.632;2024-02-21T07:26:46;8.80;99.90
15095;DHT22;7648;52.264;9.632;2024-02-21T07:30:50;8.90;99.90
15095;DHT22;7648;52.264;9.632;2024-02-21T07:34:52;8.90;99.90
15095;DHT22;7648;52.264;9.632;2024-02-21T07:38:54;8.90;99.90
15095;DHT22;7648;52.264;9.632;2024-02-21T07:42:56;9.00;99.90
15095;DHT22;7648;52.264;9.632;2024-02-21T07:46:59;9.00;99.90
15095;DHT22;7648;52.264;9.632;2024-02-21T07:51:01;9.10;99.90
15095;DHT22;7648;52.264;9.632;2024-02-21T07:55:03;9.10;99.90
15095;DHT22;7648;52.264;9.632;2024-02-21T07:59:05;9.20;99.90
15095;DHT22;7648;52.264;9.632;2024-02-21T08:03:09;9.20;99.90
15095;DHT22;7648;52.264;9.632;2024-02-21T08:07:11;9.30;99.90
15095;DHT22;7648;52.264;9.632;2024-02-21T08:11:13;9.30;99.90
15095;DHT22;7648;52.264;9.632;2024-02-21T08:15:15;9.30;99.90
15095;DHT22;7648;52.264;9.632;2024-02-21T08:19:19;9.40;99.90
15095;DHT22;7648;52.264;9.632;2024-02-21T08:23:23;9.40;99.90
15095;DHT22;7648;52.264;9.632;2024-02-21T08:27:25;9.40;99.90
15095;DHT22;7648;52.264;9.632;2024-02-21T08:31:27;9.40;99.90
15095;DHT22;7648;52.264;9.632;2024-02-21T08:35:33;9.50;99.90
15095;DHT22;7648;52.264;9.632;2024-02-21T08:39:35;9.50;99.90
15095;DHT22;7648;52.264;9.632;2024-02-21T08:43:37;9.60;99.90
15095;DHT22;7648;52.264;9.632;2024-02-21T08:47:39;9.70;99.90
15095;DHT22;7648;52.264;9.632;2024-02-21T08:51:43;9.80;99.90
15095;DHT22;7648;52.264;9.632;2024-02-21T08:55:45;9.90;99.90
15095;DHT22;7648;52.264;9.632;2024-02-21T08:59:47;10.00;99.90
15095;DHT22;7648;52.264;9.632;2024-02-21T09:03:49;10.10;99.90
15095;DHT22;7648;52.264;9.632;2024-02-21T09:07:55;10.20;99.90
15095;DHT22;7648;52.264;9.632;2024-02-21T09:11:57;10.30;99.90
15095;DHT22;7648;52.264;9.632;2024-02-21T09:16:06;10.30;99.90
15095;DHT22;7648;52.264;9.632;2024-02-21T09:20:10;10.30;99.90
15095;DHT22;7648;52.264;9.632;2024-02-21T09:24:14;10.50;99.90
15095;DHT22;7648;52.264;9.632;2024-02-21T09:28:15;10.60;99.90
15095;DHT22;7648;52.264;9.632;2024-02-21T09:32:18;10.80;99.90
15095;DHT22;7648;52.264;9.632;2024-02-21T09:36:20;10.90;99.90
15095;DHT22;7648;52.264;9.632;2024-02-21T09:40:24;10.90;99.90
15095;DHT22;7648;52.264;9.632;2024-02-21T09:44:38;10.90;99.90
15095;DHT22;7648;52.264;9.632;2024-02-21T09:48:50;11.00;99.90
15095;DHT22;7648;52.264;9.632;2024-02-21T09:52:57;11.10;99.90
15095;DHT22;7648;52.264;9.632;2024-02-21T09:57:02;11.20;99.90
15095;DHT22;7648;52.264;9.632;2024-02-21T10:01:04;11.20;99.90
15095;DHT22;7648;52.264;9.632;2024-02-21T10:05:07;11.30;99.90
15095;DHT22;7648;52.264;9.632;2024-02-21T10:09:20;11.30;99.90
15095;DHT22;7648;52.264;9.632;2024-02-21T10:13:26;11.20;99.90
15095;DHT22;7648;52.264;9.632;2024-02-21T10:17:28;11.40;99.90
15095;DHT22;7648;52.264;9.632;2024-02-21T10:21:30;11.30;99.90
15095;DHT22;7648;52.264;9.632;2024-02-21T10:25:32;11.40;99.90
15095;DHT22;7648;52.264;9.632;2024-02-21T10:29:35;11.50;99.90
15095;DHT22;7648;52.264;9.632;2024-02-21T10:33:37;11.60;99.90
15095;DHT22;7648;52.264;9.632;2024-02-21T10:37:39;11.70;99.90
15095;DHT22;7648;52.264;9.632;2024-02-21T10:41:42;11.70;99.90
15095;DHT22;7648;52.264;9.632;2024-02-21T10:45:47;11.70;99.90
15095;DHT22;7648;52.264;9.632;2024-02-21T10:50:00;11.60;99.90
15095;DHT22;7648;52.264;9.632;2024-02-21T10:54:13;11.60;99.90
15095;DHT22;7648;52.264;9.632;2024-02-21T10:58:18;11.60;99.90
15095;DHT22;7648;52.264;9.632;2024-02-21T11:02:22;11.70;99.90
15095;DHT22;7648;52.264;9.632;2024-02-21T11:06:25;11.60;99.90
15095;DHT22;7648;52.264;9.632;2024-02-21T11:10:28;11.60;99.90
15095;DHT22;7648;52.264;9.632;2024-02-21T11:14:31;11.60;99.90
15095;DHT22;7648;52.264;9.632;2024-02-21T11:18:37;11.60;99.90
15095;DHT22;7648;52.264;9.632;2024-02-21T11:22:42;11.60;99.90
15095;DHT22;7648;52.264;9.632;2024-02-21T11:26:44;11.50;99.90
15095;DHT22;7648;52.264;9.632;2024-02-21T11:30:50;11.50;99.90
15095;DHT22;7648;52.264;9.632;2024-02-21T11:34:57;11.60;99.90
15095;DHT22;7648;52.264;9.632;2024-02-21T11:39:03;11.60;99.90
15095;DHT22;7648;52.264;9.632;2024-02-21T11:43:06;11.70;99.90
15095;DHT22;7648;52.264;9.632;2024-02-21T11:47:08;11.70;99.90
15095;DHT22;7648;52.264;9.632;2024-02-21T11:51:21;11.80;99.90
15095;DHT22;7648;52.264;9.632;2024-02-21T11:55:23;11.90;99.90
15095;DHT22;7648;52.264;9.632;2024-02-21T11:59:25;11.90;99.90
15095;DHT22;7648;52.264;9.632;2024-02-21T12:03:27;12.00;99.90
15095;DHT22;7648;52.264;9.632;2024-02-21T12:07:31;11.90;99.90
15095;DHT22;7648;52.264;9.632;2024-02-21T12:11:33;11.90;99.90
15095;DHT22;7648;52.264;9.632;2024-02-21T12:15:35;12.00;99.90
15095;DHT22;7648;52.264;9.632;2024-02-21T12:19:37;12.20;99.90
15095;DHT22;7648;52.264;9.632;2024-02-21T12:23:41;12.30;99.90
15095;DHT22;7648;52.264;9.632;2024-02-21T12:27:43;12.30;99.90
15095;DHT22;7648;52.264;9.632;2024-02-21T12:31:45;12.30;99.90
15095;DHT22;7648;52.264;9.632;2024-02-21T12:35:47;12.20;99.90
15095;DHT22;7648;52.264;9.632;2024-02-21T12:39:51;12.10;99.90
15095;DHT22;7648;52.264;9.632;2024-02-21T12:43:53;12.00;99.90
15095;DHT22;7648;52.264;9.632;2024-02-21T12:47:55;12.00;99.90
15095;DHT22;7648;52.264;9.632;2024-02-21T12:51:57;12.00;99.90
15095;DHT22;7648;52.264;9.632;2024-02-21T12:56:00;12.10;99.90
15095;DHT22;7648;52.264;9.632;2024-02-21T13:00:02;12.10;99.90
15095;DHT22;7648;52.264;9.632;2024-02-21T13:04:07;12.00;99.90
15095;DHT22;7648;52.264;9.632;2024-02-21T13:08:09;12.00;99.90
15095;DHT22;7648;52.264;9.632;2024-02-21T13:12:13;11.90;99.90
15095;DHT22;7648;52.264;9.632;2024-02-21T13:16:15;12.00;99.90
15095;DHT22;7648;52.264;9.632;2024-02-21T13:20:17;12.10;99.90
15095;DHT22;7648;52.264;9.632;2024-02-21T13:24:19;12.10;99.90
15095;DHT22;7648;52.264;9.632;2024-02-21T13:28:22;12.20;99.90
15095;DHT22;7648;52.264;9.632;2024-02-21T13:32:24;12.20;99.90
15095;DHT22;7648;52.264;9.632;2024-02-21T13:36:26;12.20;99.90
15095;DHT22;7648;52.264;9.632;2024-02-21T13:40:28;12.10;99.90
15095;DHT22;7648;52.264;9.632;2024-02-21T13:44:31;12.10;99.90
15095;DHT22;7648;52.264;9.632;2024-02-21T13:48:35;12.10;99.90
15095;DHT22;7648;52.264;9.632;2024-02-21T13:52:37;12.20;99.90
15095;DHT22;7648;52.264;9.632;2024-02-21T13:56:39;12.10;99.90
15095;DHT22;7648;52.264;9.632;2024-02-21T14:00:42;12.10;99.90
15095;DHT22;7648;52.264;9.632;2024-02-21T14:04:44;12.00;99.90
15095;DHT22;7648;52.264;9.632;2024-02-21T14:08:46;12.00;99.90
15095;DHT22;7648;52.264;9.632;2024-02-21T14:12:48;12.00;99.90
15095;DHT22;7648;52.264;9.632;2024-02-21T14:16:51;11.90;99.90
15095;DHT22;7648;52.264;9.632;2024-02-21T14:20:53;11.80;99.90
15095;DHT22;7648;52.264;9.632;2024-02-21T14:24:55;11.80;99.90
15095;DHT22;7648;52.264;9.632;2024-02-21T14:28:57;11.70;99.90
15095;DHT22;7648;52.264;9.632;2024-02-21T14:33:01;11.70;99.90
15095;DHT22;7648;52.264;9.632;2024-02-21T14:37:03;11.60;99.90
15095;DHT22;7648;52.264;9.632;2024-02-21T14:41:05;11.50;99.90
15095;DHT22;7648;52.264;9.632;2024-02-21T14:45:08;11.50;99.90
15095;DHT22;7648;52.264;9.632;2024-02-21T14:49:11;11.40;99.90
15095;DHT22;7648;52.264;9.632;2024-02-21T14:53:13;11.20;99.90
15095;DHT22;7648;52.264;9.632;2024-02-21T14:57:15;11.10;99.90
15095;DHT22;7648;52.264;9.632;2024-02-21T15:01:17;11.00;99.90
15095;DHT22;7648;52.264;9.632;2024-02-21T15:05:21;10.90;99.90
15095;DHT22;7648;52.264;9.632;2024-02-21T15:09:23;10.90;99.90
15095;DHT22;7648;52.264;9.632;2024-02-21T15:13:25;10.90;99.90
15095;DHT22;7648;52.264;9.632;2024-02-21T15:17:26;10.90;99.90
15095;DHT22;7648;52.264;9.632;2024-02-21T15:21:30;10.80;99.90
15095;DHT22;7648;52.264;9.632;2024-02-21T15:25:32;10.80;99.90
15095;DHT22;7648;52.264;9.632;2024-02-21T15:29:34;10.90;99.90
15095;DHT22;7648;52.264;9.632;2024-02-21T15:33:37;10.80;99.90
15095;DHT22;7648;52.264;9.632;2024-02-21T15:37:48;10.70;99.90
15095;DHT22;7648;52.264;9.632;2024-02-21T15:41:57;10.70;99.90
15095;DHT22;7648;52.264;9.632;2024-02-21T15:45:59;10.70;99.90
15095;DHT22;7648;52.264;9.632;2024-02-21T15:50:01;10.60;99.90
15095;DHT22;7648;52.264;9.632;2024-02-21T15:54:05;10.60;99.90
15095;DHT22;7648;52.264;9.632;2024-02-21T15:58:09;10.50;99.90
15095;DHT22;7648;52.264;9.632;2024-02-21T16:02:11;10.50;99.90
15095;DHT22;7648;52.264;9.632;2024-02-21T16:06:13;10.40;99.90
15095;DHT22;7648;52.264;9.632;2024-02-21T16:10:16;10.30;99.90
15095;DHT22;7648;52.264;9.632;2024-02-21T16:14:19;10.20;99.90
15095;DHT22;7648;52.264;9.632;2024-02-21T16:18:20;10.10;99.90
15095;DHT22;7648;52.264;9.632;2024-02-21T16:22:24;10.00;99.90
15095;DHT22;7648;52.264;9.632;2024-02-21T16:26:28;9.90;99.90
15095;DHT22;7648;52.264;9.632;2024-02-21T16:30:30;9.80;99.90
15095;DHT22;7648;52.264;9.632;2024-02-21T16:34:32;9.70;99.90
15095;DHT22;7648;52.264;9.632;2024-02-21T16:38:36;9.60;99.90
15095;DHT22;7648;52.264;9.632;2024-02-21T16:42:41;9.50;99.90
15095;DHT22;7648;52.264;9.632;2024-02-21T16:46:43;9.40;99.90
15095;DHT22;7648;52.264;9.632;2024-02-21T16:50:46;9.40;99.90
15095;DHT22;7648;52.264;9.632;2024-02-21T16:54:48;9.30;99.90
15095;DHT22;7648;52.264;9.632;2024-02-21T16:58:51;9.30;99.90
15095;DHT22;7648;52.264;9.632;2024-02-21T17:02:53;9.30;99.90
15095;DHT22;7648;52.264;9.632;2024-02-21T17:06:55;9.20;99.90
15095;DHT22;7648;52.264;9.632;2024-02-21T17:10:57;9.30;99.90
15095;DHT22;7648;52.264;9.632;2024-02-21T17:15:03;9.20;99.90
15095;DHT22;7648;52.264;9.632;2024-02-21T17:19:06;9.20;99.90
15095;DHT22;7648;52.264;9.632;2024-02-21T17:23:08;9.20;99.90
15095;DHT22;7648;52.264;9.632;2024-02-21T17:27:10;9.20;99.90
15095;DHT22;7648;52.264;9.632;2024-02-21T17:31:13;9.20;99.90
15095;DHT22;7648;52.264;9.632;2024-02-21T17:35:15;9.20;99.90
15095;DHT22;7648;52.264;9.632;2024-02-21T17:39:17;9.20;99.90
15095;DHT22;7648;52.264;9.632;2024-02-21T17:43:19;9.20;99.90
15095;DHT22;7648;52.264;9.632;2024-02-21T17:47:23;9.20;99.90
15095;DHT22;7648;52.264;9.632;2024-02-21T17:51:25;9.20;99.90
15095;DHT22;7648;52.264;9.632;2024-02-21T17:55:27;9.20;99.90
15095;DHT22;7648;52.264;9.632;2024-02-21T17:59:30;9.20;99.90
15095;DHT22;7648;52.264;9.632;2024-02-21T18:03:33;9.20;99.90
15095;DHT22;7648;52.264;9.632;2024-02-21T18:07:36;9.20;99.90
15095;DHT22;7648;52.264;9.632;2024-02-21T18:11:38;9.20;99.90
15095;DHT22;7648;52.264;9.632;2024-02-21T18:15:40;9.20;99.90
15095;DHT22;7648;52.264;9.632;2024-02-21T18:19:43;9.20;99.90
15095;DHT22;7648;52.264;9.632;2024-02-21T18:23:45;9.30;99.90
15095;DHT22;7648;52.264;9.632;2024-02-21T18:27:47;9.30;99.90
15095;DHT22;7648;52.264;9.632;2024-02-21T18:31:49;9.30;99.90
15095;DHT22;7648;52.264;9.632;2024-02-21T18:35:52;9.30;99.90
15095;DHT22;7648;52.264;9.632;2024-02-21T18:39:54;9.30;99.90
15095;DHT22;7648;52.264;9.632;2024-02-21T18:43:56;9.30;99.90
15095;DHT22;7648;52.264;9.632;2024-02-21T18:47:59;9.30;99.90
15095;DHT22;7648;52.264;9.632;2024-02-21T18:52:03;9.40;99.90
15095;DHT22;7648;52.264;9.632;2024-02-21T18:56:06;9.40;99.90
15095;DHT22;7648;52.264;9.632;2024-02-21T19:00:09;9.40;99.90
15095;DHT22;7648;52.264;9.632;2024-02-21T19:04:16;9.40;99.90
15095;DHT22;7648;52.264;9.632;2024-02-21T19:08:19;9.40;99.90
15095;DHT22;7648;52.264;9.632;2024-02-21T19:12:21;9.40;99.90
15095;DHT22;7648;52.264;9.632;2024-02-21T19:16:24;9.30;99.90
15095;DHT22;7648;52.264;9.632;2024-02-21T19:20:27;9.30;99.90
15095;DHT22;7648;52.264;9.632;2024-02-21T19:24:30;9.30;99.90
15095;DHT22;7648;52.264;9.632;2024-02-21T19:28:32;9.40;99.90
15095;DHT22;7648;52.264;9.632;2024-02-21T19:32:35;9.40;99.90
15095;DHT22;7648;52.264;9.632;2024-02-21T19:36:37;9.40;99.90
15095;DHT22;7648;52.264;9.632;2024-02-21T19:40:41;9.50;99.90
15095;DHT22;7648;52.264;9.632;2024-02-21T19:44:43;9.40;99.90
15095;DHT22;7648;52.264;9.632;2024-02-21T19:48:45;9.50;99.90
15095;DHT22;7648;52.264;9.632;2024-02-21T19:52:49;9.50;99.90
15095;DHT22;7648;52.264;9.632;2024-02-21T19:56:52;9.50;99.90
15095;DHT22;7648;52.264;9.632;2024-02-21T20:00:54;9.50;99.90
15095;DHT22;7648;52.264;9.632;2024-02-21T20:04:56;9.50;99.90
15095;DHT22;7648;52.264;9.632;2024-02-21T20:08:58;9.50;99.90
15095;DHT22;7648;52.264;9.632;2024-02-21T20:13:07;9.50;99.90
15095;DHT22;7648;52.264;9.632;2024-02-21T20:17:09;9.40;99.90
15095;DHT22;7648;52.264;9.632;2024-02-21T20:21:11;9.40;99.90
15095;DHT22;7648;52.264;9.632;2024-02-21T20:25:14;9.40;99.90
15095;DHT22;7648;52.264;9.632;2024-02-21T20:29:17;9.40;99.90
15095;DHT22;7648;52.264;9.632;2024-02-21T20:33:19;9.40;99.90
15095;DHT22;7648;52.264;9.632;2024-02-21T20:37:21;9.30;99.90
15095;DHT22;7648;52.264;9.632;2024-02-21T20:41:23;9.30;99.90
15095;DHT22;7648;52.264;9.632;2024-02-21T20:45:27;9.30;99.90
15095;DHT22;7648;52.264;9.632;2024-02-21T20:49:29;9.20;99.90
15095;DHT22;7648;52.264;9.632;2024-02-21T20:53:31;9.20;99.90
15095;DHT22;7648;52.264;9.632;2024-02-21T20:57:33;9.20;99.90
15095;DHT22;7648;52.264;9.632;2024-02-21T21:01:37;9.20;99.90
15095;DHT22;7648;52.264;9.632;2024-02-21T21:05:39;9.10;99.90
15095;DHT22;7648;52.264;9.632;2024-02-21T21:09:42;9.10;99.90
15095;DHT22;7648;52.264;9.632;2024-02-21T21:13:44;9.20;99.90
15095;DHT22;7648;52.264;9.632;2024-02-21T21:17:47;9.20;99.90
15095;DHT22;7648;52.264;9.632;2024-02-21T21:21:49;9.20;99.90
15095;DHT22;7648;52.264;9.632;2024-02-21T21:25:52;9.10;99.90
15095;DHT22;7648;52.264;9.632;2024-02-21T21:29:54;9.10;99.90
15095;DHT22;7648;52.264;9.632;2024-02-21T21:33:57;9.10;99.90
15095;DHT22;7648;52.264;9.632;2024-02-21T21:37:59;9.00;99.90
15095;DHT22;7648;52.264;9.632;2024-02-21T21:42:01;9.00;99.90
15095;DHT22;7648;52.264;9.632;2024-02-21T21:46:04;9.00;99.90
15095;DHT22;7648;52.264;9.632;2024-02-21T21:50:08;9.00;99.90
15095;DHT22;7648;52.264;9.632;2024-02-21T21:54:10;9.00;99.90
15095;DHT22;7648;52.264;9.632;2024-02-21T21:58:12;9.00;99.90
15095;DHT22;7648;52.264;9.632;2024-02-21T22:02:14;9.00;99.90
15095;DHT22;7648;52.264;9.632;2024-02-21T22:06:17;9.10;99.90
15095;DHT22;7648;52.264;9.632;2024-02-21T22:10:19;9.20;99.90
15095;DHT22;7648;52.264;9.632;2024-02-21T22:14:21;9.10;99.90
15095;DHT22;7648;52.264;9.632;2024-02-21T22:18:23;9.10;99.90
15095;DHT22;7648;52.264;9.632;2024-02-21T22:22:26;9.10;99.90
15095;DHT22;7648;52.264;9.632;2024-02-21T22:26:29;9.10;99.90
15095;DHT22;7648;52.264;9.632;2024-02-21T22:30:31;9.10;99.90
15095;DHT22;7648;52.264;9.632;2024-02-21T22:34:33;9.10;99.90
15095;DHT22;7648;52.264;9.632;2024-02-21T22:38:36;9.10;99.90
15095;DHT22;7648;52.264;9.632;2024-02-21T22:42:39;9.10;99.90
15095;DHT22;7648;52.264;9.632;2024-02-21T22:46:42;9.10;99.90
15095;DHT22;7648;52.264;9.632;2024-02-21T22:50:44;9.10;99.90
15095;DHT22;7648;52.264;9.632;2024-02-21T22:54:47;9.10;99.90
15095;DHT22;7648;52.264;9.632;2024-02-21T22:58:49;9.10;99.90
15095;DHT22;7648;52.264;9.632;2024-02-21T23:02:52;9.10;99.90
15095;DHT22;7648;52.264;9.632;2024-02-21T23:06:54;9.10;99.90
15095;DHT22;7648;52.264;9.632;2024-02-21T23:10:57;9.00;99.90
15095;DHT22;7648;52.264;9.632;2024-02-21T23:15:01;9.10;99.90
15095;DHT22;7648;52.264;9.632;2024-02-21T23:19:03;9.10;99.90
15095;DHT22;7648;52.264;9.632;2024-02-21T23:23:05;9.10;99.90
15095;DHT22;7648;52.264;9.632;2024-02-21T23:27:09;9.00;99.90
15095;DHT22;7648;52.264;9.632;2024-02-21T23:31:12;9.10;99.90
15095;DHT22;7648;52.264;9.632;2024-02-21T23:35:15;9.10;99.90
15095;DHT22;7648;52.264;9.632;2024-02-21T23:39:16;9.00;99.90
15095;DHT22;7648;52.264;9.632;2024-02-21T23:43:20;9.00;99.90
15095;DHT22;7648;52.264;9.632;2024-02-21T23:47:22;9.00;99.90
15095;DHT22;7648;52.264;9.632;2024-02-21T23:51:24;8.90;99.90
15095;DHT22;7648;52.264;9.632;2024-02-21T23:55:26;8.90;99.90
15095;DHT22;7648;52.264;9.632;2024-02-21T23:59:29;8.90;99.90
